Time;durP1;ratioP1;P1;durP2;ratioP2;P2;SDS_P1;SDS_P2;PMS_P1;PMS_P2;Temp;Humidity;BMP_temperature;BMP_pressure;BME280_temperature;BME280_humidity;BME280_pressure;Samples;Min_cycle;Max_cycle;Signal;HPM_P1;HPM_P2
2023/06/18 00:01:23;;;;;;;;;;;16.30;99.90;;;;;;5155748;27;19922;-46
2023/06/18 00:03:49;;;;;;;;;;;16.30;99.90;;;;;;5155900;27;19919;-45
2023/06/18 00:06:15;;;;;;;;;;;16.30;99.90;;;;;;5155673;27;19969;-45
2023/06/18 00:08:40;;;;;;;;;;;16.30;99.90;;;;;;5155937;27;19927;-45
2023/06/18 00:11:06;;;;;;;;;;;16.30;99.90;;;;;;5155757;27;19919;-45
2023/06/18 00:13:31;;;;;;;;;;;16.30;99.90;;;;;;5155694;27;19919;-47
2023/06/18 00:15:57;;;;;;;;;;;16.30;99.90;;;;;;5155721;27;20410;-45
2023/06/18 00:18:22;;;;;;;;;;;16.30;99.90;;;;;;5155610;27;20023;-45
2023/06/18 00:20:49;;;;;;;;;;;16.20;99.90;;;;;;5137413;27;19918;-46
2023/06/18 00:23:14;;;;;;;;;;;16.20;99.90;;;;;;5155362;27;20361;-45
2023/06/18 00:25:40;;;;;;;;;;;16.20;99.90;;;;;;5155976;27;19926;-45
2023/06/18 00:28:06;;;;;;;;;;;16.10;99.90;;;;;;5155477;27;20433;-46
2023/06/18 00:30:32;;;;;;;;;;;16.10;99.90;;;;;;5158557;27;20327;-46
2023/06/18 00:32:59;;;;;;;;;;;16.10;99.90;;;;;;5159512;27;19923;-47
2023/06/18 00:35:24;;;;;;;;;;;16.10;99.90;;;;;;5141070;27;19919;-47
2023/06/18 00:37:50;;;;;;;;;;;16.00;99.90;;;;;;5159403;27;19994;-46
2023/06/18 00:40:16;;;;;;;;;;;16.00;99.90;;;;;;5159554;27;19919;-45
2023/06/18 00:42:41;;;;;;;;;;;16.00;99.90;;;;;;5159454;27;19947;-46
2023/06/18 00:45:11;;;;;;;;;;;16.00;99.90;;;;;;5159463;27;20289;-46
2023/06/18 00:47:40;;;;;;;;;;;16.00;99.90;;;;;;5159234;27;19926;-46
2023/06/18 00:50:06;;;;;;;;;;;16.00;99.90;;;;;;5141115;27;19919;-45
2023/06/18 00:52:36;;;;;;;;;;;15.90;99.90;;;;;;5159388;27;19919;-46
2023/06/18 00:55:02;;;;;;;;;;;15.90;99.90;;;;;;5159234;27;20281;-45
2023/06/18 00:57:28;;;;;;;;;;;15.80;99.90;;;;;;5159489;27;19926;-45
2023/06/18 00:59:54;;;;;;;;;;;15.80;99.90;;;;;;5159122;27;19975;-45
2023/06/18 01:02:26;;;;;;;;;;;15.70;99.90;;;;;;5140714;27;19972;-45
2023/06/18 01:04:55;;;;;;;;;;;15.60;99.90;;;;;;5140908;27;19918;-46
2023/06/18 01:07:21;;;;;;;;;;;15.60;99.90;;;;;;5159055;27;19944;-46
2023/06/18 01:09:52;;;;;;;;;;;15.60;99.90;;;;;;5159263;27;19919;-47
2023/06/18 01:12:19;;;;;;;;;;;15.60;99.90;;;;;;5159014;27;20312;-45
2023/06/18 01:14:50;;;;;;;;;;;15.60;99.90;;;;;;5159059;27;19919;-45
2023/06/18 01:17:17;;;;;;;;;;;15.60;99.90;;;;;;5158921;27;19919;-46
2023/06/18 01:19:45;;;;;;;;;;;15.60;99.90;;;;;;5140433;27;20076;-45
2023/06/18 01:22:18;;;;;;;;;;;15.50;99.90;;;;;;5158779;27;19919;-45
2023/06/18 01:24:49;;;;;;;;;;;15.50;99.90;;;;;;5158589;27;20289;-47
2023/06/18 01:27:16;;;;;;;;;;;15.50;99.90;;;;;;5140102;27;19918;-46
2023/06/18 01:29:42;;;;;;;;;;;15.50;99.90;;;;;;5158421;27;20014;-46
2023/06/18 01:32:07;;;;;;;;;;;15.40;99.90;;;;;;5158610;27;20019;-46
2023/06/18 01:34:38;;;;;;;;;;;15.40;99.90;;;;;;5158262;27;19929;-45
2023/06/18 01:37:14;;;;;;;;;;;15.40;99.90;;;;;;5158507;27;19923;-47
2023/06/18 01:39:40;;;;;;;;;;;15.40;99.90;;;;;;5158385;27;19919;-46
2023/06/18 01:42:25;;;;;;;;;;;15.40;99.90;;;;;;5157007;27;19926;-46
2023/06/18 01:44:55;;;;;;;;;;;15.40;99.90;;;;;;5158433;27;19919;-47
2023/06/18 01:47:21;;;;;;;;;;;15.30;99.90;;;;;;5158442;27;19919;-47
2023/06/18 01:49:47;;;;;;;;;;;15.30;99.90;;;;;;5140130;27;19919;-46
2023/06/18 01:52:15;;;;;;;;;;;15.20;99.90;;;;;;5158342;27;19971;-46
2023/06/18 01:54:43;;;;;;;;;;;15.10;99.90;;;;;;5157996;27;19919;-45
2023/06/18 01:57:08;;;;;;;;;;;15.10;99.90;;;;;;5158582;27;19963;-45
2023/06/18 01:59:34;;;;;;;;;;;15.00;99.90;;;;;;5157978;27;19919;-45
2023/06/18 02:01:59;;;;;;;;;;;15.00;99.90;;;;;;5158117;27;19962;-45
2023/06/18 02:04:25;;;;;;;;;;;15.00;99.90;;;;;;5158015;27;20441;-46
2023/06/18 02:06:51;;;;;;;;;;;14.90;99.90;;;;;;5157794;27;19926;-45
2023/06/18 02:09:16;;;;;;;;;;;14.90;99.90;;;;;;5139321;27;19970;-46
2023/06/18 02:11:42;;;;;;;;;;;14.90;99.90;;;;;;5122096;27;19942;-46
2023/06/18 02:14:07;;;;;;;;;;;14.90;99.90;;;;;;5139563;27;20056;-46
2023/06/18 02:16:33;;;;;;;;;;;14.90;99.90;;;;;;5139679;27;19923;-45
2023/06/18 02:18:58;;;;;;;;;;;14.90;99.90;;;;;;5139266;27;19919;-45
2023/06/18 02:21:24;;;;;;;;;;;14.80;99.90;;;;;;5157422;27;19963;-45
2023/06/18 02:23:50;;;;;;;;;;;14.80;99.90;;;;;;5157319;27;20405;-45
2023/06/18 02:26:17;;;;;;;;;;;14.80;99.90;;;;;;5157347;27;19919;-45
2023/06/18 02:28:42;;;;;;;;;;;14.80;99.90;;;;;;5157667;27;19926;-45
2023/06/18 02:31:08;;;;;;;;;;;14.80;99.90;;;;;;5157350;27;19918;-46
2023/06/18 02:33:33;;;;;;;;;;;14.80;99.90;;;;;;5157219;27;20021;-45
2023/06/18 02:35:59;;;;;;;;;;;14.90;99.90;;;;;;5157332;27;19919;-45
2023/06/18 02:38:24;;;;;;;;;;;14.90;99.90;;;;;;5156906;27;19919;-47
2023/06/18 02:40:50;;;;;;;;;;;14.90;99.90;;;;;;5157174;27;19964;-46
2023/06/18 02:43:15;;;;;;;;;;;14.90;99.90;;;;;;5157603;27;19972;-46
2023/06/18 02:45:41;;;;;;;;;;;15.00;99.90;;;;;;5138665;27;19961;-47
2023/06/18 02:48:07;;;;;;;;;;;15.00;99.90;;;;;;5157043;27;19919;-46
2023/06/18 02:50:32;;;;;;;;;;;15.10;99.90;;;;;;5138676;27;19919;-45
2023/06/18 02:52:58;;;;;;;;;;;15.10;99.90;;;;;;5156505;27;19926;-47
2023/06/18 02:55:24;;;;;;;;;;;15.10;99.90;;;;;;5156747;27;19959;-46
2023/06/18 02:57:50;;;;;;;;;;;15.00;99.90;;;;;;5156893;27;20270;-46
2023/06/18 03:00:16;;;;;;;;;;;15.00;99.90;;;;;;5156751;27;19919;-45
2023/06/18 03:02:42;;;;;;;;;;;15.00;99.90;;;;;;5156672;27;19919;-45
2023/06/18 03:05:08;;;;;;;;;;;15.10;99.90;;;;;;5156761;27;19919;-45
2023/06/18 03:07:34;;;;;;;;;;;15.10;99.90;;;;;;5138212;27;19922;-45
2023/06/18 03:10:00;;;;;;;;;;;15.10;99.90;;;;;;5156375;27;19919;-46
2023/06/18 03:12:26;;;;;;;;;;;15.20;99.90;;;;;;5156636;27;19919;-45
2023/06/18 03:14:51;;;;;;;;;;;15.20;99.90;;;;;;5156472;27;19919;-46
2023/06/18 03:17:17;;;;;;;;;;;15.20;99.90;;;;;;5156670;27;19926;-46
2023/06/18 03:19:42;;;;;;;;;;;15.20;99.90;;;;;;5137885;27;19919;-45
2023/06/18 03:22:08;;;;;;;;;;;15.20;99.90;;;;;;5156206;27;19919;-46
2023/06/18 03:24:34;;;;;;;;;;;15.20;99.90;;;;;;5156249;27;20338;-46
2023/06/18 03:27:00;;;;;;;;;;;15.20;99.90;;;;;;5156292;27;19918;-46
2023/06/18 03:29:25;;;;;;;;;;;15.30;99.90;;;;;;5138074;27;19919;-46
2023/06/18 03:31:52;;;;;;;;;;;15.30;99.90;;;;;;5156500;27;19923;-46
2023/06/18 03:34:20;;;;;;;;;;;15.30;99.90;;;;;;5156091;27;19919;-46
2023/06/18 03:36:47;;;;;;;;;;;15.30;99.90;;;;;;5155958;27;19919;-46
2023/06/18 03:39:15;;;;;;;;;;;15.30;99.90;;;;;;5155876;27;19923;-46
2023/06/18 03:41:40;;;;;;;;;;;15.30;99.90;;;;;;5156139;27;19919;-47
2023/06/18 03:44:06;;;;;;;;;;;15.30;99.90;;;;;;5156115;27;20347;-46
2023/06/18 03:46:32;;;;;;;;;;;15.30;99.90;;;;;;5156077;27;19919;-46
2023/06/18 03:48:58;;;;;;;;;;;15.40;99.90;;;;;;5156063;27;20410;-45
2023/06/18 03:51:23;;;;;;;;;;;15.40;99.90;;;;;;5155876;27;20373;-45
2023/06/18 03:53:50;;;;;;;;;;;15.40;99.90;;;;;;5155829;27;19919;-46
2023/06/18 03:56:15;;;;;;;;;;;15.40;99.90;;;;;;5155977;27;20005;-46
2023/06/18 03:58:41;;;;;;;;;;;15.40;99.90;;;;;;5155852;27;20010;-45
2023/06/18 04:01:07;;;;;;;;;;;15.40;99.90;;;;;;5155908;27;19919;-46
2023/06/18 04:03:32;;;;;;;;;;;15.50;99.90;;;;;;5155749;27;19971;-45
2023/06/18 04:05:58;;;;;;;;;;;15.50;99.90;;;;;;5155574;27;20408;-46
2023/06/18 04:08:24;;;;;;;;;;;15.50;99.90;;;;;;5155739;27;20289;-46
2023/06/18 04:10:50;;;;;;;;;;;15.60;99.90;;;;;;5155776;27;19922;-45
2023/06/18 04:13:16;;;;;;;;;;;15.60;99.90;;;;;;5155716;27;19919;-45
2023/06/18 04:15:43;;;;;;;;;;;15.70;99.90;;;;;;5155757;27;19919;-45
2023/06/18 04:18:08;;;;;;;;;;;15.70;99.90;;;;;;5155567;27;20393;-47
2023/06/18 04:20:34;;;;;;;;;;;15.70;99.90;;;;;;5155388;27;19919;-45
2023/06/18 04:23:00;;;;;;;;;;;15.70;99.90;;;;;;5155436;27;19925;-46
2023/06/18 04:25:25;;;;;;;;;;;15.70;99.90;;;;;;5155648;27;19972;-46
2023/06/18 04:27:51;;;;;;;;;;;15.70;99.90;;;;;;5155610;27;20255;-45
2023/06/18 04:30:17;;;;;;;;;;;15.80;99.90;;;;;;5155497;27;19971;-46
2023/06/18 04:32:42;;;;;;;;;;;15.80;99.90;;;;;;5155553;27;19925;-46
2023/06/18 04:35:08;;;;;;;;;;;15.80;99.90;;;;;;5155389;27;19923;-45
2023/06/18 04:37:35;;;;;;;;;;;15.80;99.90;;;;;;5155397;27;19923;-45
2023/06/18 04:40:01;;;;;;;;;;;15.80;99.90;;;;;;5155394;27;19979;-46
2023/06/18 04:42:26;;;;;;;;;;;15.80;99.90;;;;;;5136806;27;19919;-45
2023/06/18 04:44:52;;;;;;;;;;;15.90;99.90;;;;;;5155383;27;19919;-45
2023/06/18 04:47:17;;;;;;;;;;;15.90;99.90;;;;;;5155334;27;20013;-45
2023/06/18 04:49:44;;;;;;;;;;;15.90;99.90;;;;;;5155492;27;20343;-45
2023/06/18 04:52:10;;;;;;;;;;;15.90;99.90;;;;;;5155343;27;19919;-45
2023/06/18 04:54:36;;;;;;;;;;;15.90;99.90;;;;;;5155105;27;19919;-45
2023/06/18 04:57:01;;;;;;;;;;;15.90;99.90;;;;;;5155224;27;19919;-45
2023/06/18 04:59:27;;;;;;;;;;;15.90;99.90;;;;;;5155215;27;19919;-45
2023/06/18 05:01:53;;;;;;;;;;;15.90;99.90;;;;;;5155222;27;19919;-45
2023/06/18 05:04:18;;;;;;;;;;;15.90;99.90;;;;;;5155214;27;20017;-45
2023/06/18 05:06:44;;;;;;;;;;;16.00;99.90;;;;;;5155056;27;19919;-45
2023/06/18 05:09:10;;;;;;;;;;;16.00;99.90;;;;;;5136739;27;19974;-45
2023/06/18 05:11:35;;;;;;;;;;;16.00;99.90;;;;;;5155223;27;19976;-45
2023/06/18 05:14:01;;;;;;;;;;;16.10;99.90;;;;;;5155161;27;19927;-45
2023/06/18 05:16:27;;;;;;;;;;;16.10;99.90;;;;;;5157465;27;19922;-45
2023/06/18 05:18:52;;;;;;;;;;;16.20;99.90;;;;;;5158692;27;19963;-45
2023/06/18 05:21:18;;;;;;;;;;;16.20;99.90;;;;;;5158577;27;19919;-45
2023/06/18 05:23:44;;;;;;;;;;;16.30;99.90;;;;;;5158695;27;19985;-46
2023/06/18 05:26:10;;;;;;;;;;;16.30;99.90;;;;;;5158716;27;19988;-45
2023/06/18 05:28:36;;;;;;;;;;;16.30;99.90;;;;;;5158581;27;19919;-45
2023/06/18 05:31:01;;;;;;;;;;;16.40;99.90;;;;;;5158538;27;19926;-45
2023/06/18 05:33:27;;;;;;;;;;;16.50;99.90;;;;;;5158492;27;19918;-46
2023/06/18 05:35:52;;;;;;;;;;;16.50;99.90;;;;;;5158306;27;19919;-46
2023/06/18 05:38:18;;;;;;;;;;;16.60;99.90;;;;;;5158964;27;19919;-45
2023/06/18 05:40:43;;;;;;;;;;;16.70;99.90;;;;;;5158555;27;19926;-46
2023/06/18 05:43:09;;;;;;;;;;;16.70;99.90;;;;;;5158767;27;19919;-45
2023/06/18 05:45:35;;;;;;;;;;;16.80;99.90;;;;;;5140082;27;19919;-45
2023/06/18 05:48:00;;;;;;;;;;;16.70;99.90;;;;;;5158328;27;20007;-45
2023/06/18 05:50:27;;;;;;;;;;;16.80;99.90;;;;;;5158050;27;19964;-45
2023/06/18 05:52:52;;;;;;;;;;;16.90;99.90;;;;;;5158129;27;19919;-45
2023/06/18 05:55:18;;;;;;;;;;;16.90;99.90;;;;;;5139940;27;20318;-46
2023/06/18 05:57:44;;;;;;;;;;;17.00;99.90;;;;;;5158143;27;19927;-45
2023/06/18 06:00:10;;;;;;;;;;;17.00;99.90;;;;;;5157915;27;19919;-46
2023/06/18 06:02:35;;;;;;;;;;;17.00;99.90;;;;;;5139619;27;19919;-47
2023/06/18 06:05:01;;;;;;;;;;;17.10;99.90;;;;;;5157746;27;19919;-46
2023/06/18 06:07:26;;;;;;;;;;;17.20;99.90;;;;;;5157922;27;20072;-46
2023/06/18 06:09:52;;;;;;;;;;;17.10;99.90;;;;;;5157812;27;19919;-45
2023/06/18 06:12:18;;;;;;;;;;;17.20;99.90;;;;;;5139196;27;19918;-46
2023/06/18 06:14:43;;;;;;;;;;;17.30;99.90;;;;;;5157846;27;19923;-46
2023/06/18 06:17:09;;;;;;;;;;;17.30;99.90;;;;;;5157639;27;20017;-46
2023/06/18 06:19:34;;;;;;;;;;;17.40;99.90;;;;;;5121727;27;19919;-45
2023/06/18 06:22:00;;;;;;;;;;;17.40;99.90;;;;;;5157358;27;19923;-46
2023/06/18 06:24:25;;;;;;;;;;;17.50;99.90;;;;;;5157568;27;19919;-45
2023/06/18 06:26:51;;;;;;;;;;;17.60;99.90;;;;;;5121598;27;19919;-45
2023/06/18 06:29:17;;;;;;;;;;;17.70;99.90;;;;;;5157652;27;20018;-46
2023/06/18 06:31:42;;;;;;;;;;;17.70;99.90;;;;;;5157181;27;19919;-45
2023/06/18 06:34:08;;;;;;;;;;;17.80;99.90;;;;;;5157464;27;19919;-45
2023/06/18 06:36:34;;;;;;;;;;;17.80;99.90;;;;;;5157007;27;19930;-45
2023/06/18 06:39:02;;;;;;;;;;;17.80;99.90;;;;;;5157144;27;20354;-45
2023/06/18 06:41:27;;;;;;;;;;;17.90;99.90;;;;;;5157136;27;19940;-45
2023/06/18 06:43:53;;;;;;;;;;;18.00;99.90;;;;;;5157264;27;20005;-46
2023/06/18 06:46:19;;;;;;;;;;;18.10;99.90;;;;;;5156986;27;19964;-45
2023/06/18 06:48:45;;;;;;;;;;;18.20;99.90;;;;;;5156902;27;19919;-44
2023/06/18 06:51:11;;;;;;;;;;;18.30;99.90;;;;;;5138520;27;19972;-45
2023/06/18 06:53:36;;;;;;;;;;;18.40;99.90;;;;;;5157054;27;19961;-45
2023/06/18 06:56:02;;;;;;;;;;;18.50;99.90;;;;;;5156956;27;19919;-45
2023/06/18 06:58:27;;;;;;;;;;;18.50;99.90;;;;;;5156803;27;19925;-46
2023/06/18 07:00:53;;;;;;;;;;;18.50;99.90;;;;;;5156885;27;19923;-47
2023/06/18 07:03:19;;;;;;;;;;;18.60;99.90;;;;;;5138257;27;20282;-46
2023/06/18 07:05:44;;;;;;;;;;;18.60;99.90;;;;;;5156516;27;19926;-46
2023/06/18 07:08:10;;;;;;;;;;;18.60;99.90;;;;;;5156695;27;20251;-45
2023/06/18 07:10:36;;;;;;;;;;;18.70;99.90;;;;;;5138451;27;20422;-45
2023/06/18 07:13:02;;;;;;;;;;;19.00;99.90;;;;;;5156625;27;19919;-46
2023/06/18 07:15:27;;;;;;;;;;;19.20;99.90;;;;;;5156441;27;20374;-46
2023/06/18 07:17:53;;;;;;;;;;;19.30;99.90;;;;;;5138211;27;19966;-45
2023/06/18 07:20:18;;;;;;;;;;;19.40;99.90;;;;;;5156254;27;19919;-46
2023/06/18 07:22:44;;;;;;;;;;;19.40;99.90;;;;;;5138685;27;19926;-46
2023/06/18 07:25:10;;;;;;;;;;;19.50;99.90;;;;;;5156365;27;19984;-46
2023/06/18 07:27:35;;;;;;;;;;;19.80;99.90;;;;;;5156502;27;19919;-45
2023/06/18 07:30:01;;;;;;;;;;;20.00;99.90;;;;;;5156351;27;19992;-45
2023/06/18 07:32:27;;;;;;;;;;;20.10;99.90;;;;;;5138017;27;19919;-46
2023/06/18 07:34:52;;;;;;;;;;;20.00;99.90;;;;;;5156153;27;19922;-46
2023/06/18 07:37:18;;;;;;;;;;;20.00;99.90;;;;;;5138033;27;19925;-46
2023/06/18 07:39:43;;;;;;;;;;;19.90;99.90;;;;;;5155159;27;19923;-46
2023/06/18 07:42:09;;;;;;;;;;;19.80;99.90;;;;;;5156404;27;19919;-46
2023/06/18 07:44:34;;;;;;;;;;;19.80;99.90;;;;;;5156035;27;19977;-46
2023/06/18 07:47:00;;;;;;;;;;;19.80;99.90;;;;;;5155955;27;19919;-46
2023/06/18 07:49:26;;;;;;;;;;;19.80;99.90;;;;;;5137799;27;19926;-46
2023/06/18 07:51:51;;;;;;;;;;;19.90;99.90;;;;;;5155981;27;19983;-46
2023/06/18 07:54:17;;;;;;;;;;;19.90;99.90;;;;;;5155992;27;19926;-46
2023/06/18 07:56:43;;;;;;;;;;;20.00;99.90;;;;;;5156236;27;20497;-46
2023/06/18 07:59:08;;;;;;;;;;;20.00;99.90;;;;;;5120358;27;19919;-45
2023/06/18 08:01:34;;;;;;;;;;;20.10;99.90;;;;;;5137320;27;19922;-46
2023/06/18 08:04:00;;;;;;;;;;;20.20;99.90;;;;;;5155576;27;19972;-46
2023/06/18 08:06:25;;;;;;;;;;;20.30;99.90;;;;;;5155812;27;19978;-46
2023/06/18 08:08:51;;;;;;;;;;;20.30;99.90;;;;;;5156001;27;20430;-46
2023/06/18 08:11:17;;;;;;;;;;;20.40;99.90;;;;;;5155896;27;19966;-46
2023/06/18 08:13:43;;;;;;;;;;;20.40;99.90;;;;;;5155764;27;19919;-46
2023/06/18 08:16:09;;;;;;;;;;;20.40;99.90;;;;;;5155745;27;20305;-45
2023/06/18 08:18:35;;;;;;;;;;;20.40;99.90;;;;;;5155318;27;19919;-46
2023/06/18 08:21:01;;;;;;;;;;;20.40;99.90;;;;;;5156023;27;19923;-46
2023/06/18 08:23:27;;;;;;;;;;;20.40;99.90;;;;;;5155646;27;20339;-46
2023/06/18 08:25:52;;;;;;;;;;;20.50;99.90;;;;;;5155482;27;19948;-46
2023/06/18 08:28:18;;;;;;;;;;;20.50;99.90;;;;;;5137038;27;19926;-46
2023/06/18 08:30:43;;;;;;;;;;;20.60;99.90;;;;;;5155308;27;20370;-46
2023/06/18 08:33:09;;;;;;;;;;;20.70;99.90;;;;;;5155326;27;19919;-46
2023/06/18 08:35:37;;;;;;;;;;;20.70;99.90;;;;;;5155559;27;19941;-46
2023/06/18 08:38:03;;;;;;;;;;;20.70;99.90;;;;;;5155225;27;20281;-46
2023/06/18 08:40:34;;;;;;;;;;;20.80;99.90;;;;;;5136995;27;19930;-46
2023/06/18 08:43:00;;;;;;;;;;;20.90;99.90;;;;;;5155542;27;19919;-46
2023/06/18 08:45:25;;;;;;;;;;;20.90;99.90;;;;;;5155193;27;20017;-46
2023/06/18 08:47:53;;;;;;;;;;;21.00;99.90;;;;;;5155284;27;19926;-46
2023/06/18 08:50:19;;;;;;;;;;;21.00;99.90;;;;;;5156173;27;19926;-46
2023/06/18 08:52:48;;;;;;;;;;;21.00;99.90;;;;;;5159382;27;20266;-46
2023/06/18 08:55:14;;;;;;;;;;;21.00;99.90;;;;;;5141197;27;20027;-46
2023/06/18 08:57:52;;;;;;;;;;;21.10;99.90;;;;;;5159250;27;19926;-46
2023/06/18 09:00:18;;;;;;;;;;;21.10;99.90;;;;;;5158913;27;19919;-46
2023/06/18 09:02:44;;;;;;;;;;;21.20;99.90;;;;;;5159190;27;20010;-46
2023/06/18 09:05:09;;;;;;;;;;;21.20;99.90;;;;;;5159091;27;20014;-47
2023/06/18 09:07:35;;;;;;;;;;;21.30;99.90;;;;;;5159028;27;20017;-46
2023/06/18 09:10:03;;;;;;;;;;;21.40;99.90;;;;;;5159007;27;19926;-48
2023/06/18 09:12:28;;;;;;;;;;;21.40;99.90;;;;;;5139993;27;19919;-47
2023/06/18 09:14:54;;;;;;;;;;;21.50;99.90;;;;;;5158291;27;19926;-47
2023/06/18 09:17:20;;;;;;;;;;;21.60;99.90;;;;;;5158260;27;20383;-46
2023/06/18 09:19:46;;;;;;;;;;;21.60;99.90;;;;;;5158435;27;19926;-47
2023/06/18 09:22:13;;;;;;;;;;;21.60;99.90;;;;;;5158892;27;20281;-46
2023/06/18 09:24:39;;;;;;;;;;;21.70;99.90;;;;;;5140012;27;19925;-47
2023/06/18 09:27:05;;;;;;;;;;;21.80;99.90;;;;;;5158285;27;19919;-46
2023/06/18 09:29:36;;;;;;;;;;;21.90;99.90;;;;;;5158621;27;19919;-46
2023/06/18 09:32:06;;;;;;;;;;;22.00;99.90;;;;;;5159071;27;20338;-46
2023/06/18 09:34:32;;;;;;;;;;;22.00;99.90;;;;;;5158380;27;20366;-46
2023/06/18 09:36:57;;;;;;;;;;;22.10;99.90;;;;;;5158315;27;19919;-47
2023/06/18 09:39:24;;;;;;;;;;;22.10;99.90;;;;;;5158419;27;19926;-46
2023/06/18 09:41:51;;;;;;;;;;;22.20;99.90;;;;;;5158171;27;19918;-46
2023/06/18 09:44:18;;;;;;;;;;;22.20;99.90;;;;;;5158272;27;19979;-47
2023/06/18 09:46:44;;;;;;;;;;;22.30;99.90;;;;;;5158741;27;20496;-47
2023/06/18 09:49:11;;;;;;;;;;;22.40;99.90;;;;;;5158166;27;19962;-47
2023/06/18 09:51:42;;;;;;;;;;;22.50;99.90;;;;;;5139816;27;19926;-48
2023/06/18 09:54:08;;;;;;;;;;;22.60;99.90;;;;;;5140100;27;19923;-46
2023/06/18 09:56:35;;;;;;;;;;;22.70;99.90;;;;;;5157985;27;20277;-47
2023/06/18 09:59:03;;;;;;;;;;;22.70;99.90;;;;;;5158055;27;19919;-47
2023/06/18 10:01:43;;;;;;;;;;;22.80;99.90;;;;;;5157608;27;19926;-46
2023/06/18 10:04:08;;;;;;;;;;;22.80;99.90;;;;;;5157889;27;19963;-46
2023/06/18 10:06:34;;;;;;;;;;;22.90;99.90;;;;;;5157981;27;20315;-46
2023/06/18 10:09:00;;;;;;;;;;;22.90;99.90;;;;;;5157775;27;19980;-48
2023/06/18 10:11:26;;;;;;;;;;;23.00;99.90;;;;;;5157667;27;20379;-47
2023/06/18 10:13:56;;;;;;;;;;;23.10;99.90;;;;;;5158143;27;20273;-47
2023/06/18 10:16:22;;;;;;;;;;;23.10;99.90;;;;;;5157925;27;20267;-46
2023/06/18 10:19:11;;;;;;;;;;;23.20;99.90;;;;;;5139348;27;19919;-47
2023/06/18 10:21:38;;;;;;;;;;;23.30;99.90;;;;;;5157543;27;19966;-47
2023/06/18 10:24:17;;;;;;;;;;;23.50;99.90;;;;;;5157616;27;19949;-46
2023/06/18 10:26:43;;;;;;;;;;;23.60;99.90;;;;;;5157688;27;19973;-46
2023/06/18 10:29:12;;;;;;;;;;;23.70;99.90;;;;;;5157462;27;19963;-47
2023/06/18 10:31:38;;;;;;;;;;;23.80;99.90;;;;;;5157325;27;19919;-46
2023/06/18 10:34:07;;;;;;;;;;;23.90;99.90;;;;;;5157110;27;19960;-46
2023/06/18 10:36:33;;;;;;;;;;;24.10;99.90;;;;;;5122031;27;20437;-47
2023/06/18 10:38:59;;;;;;;;;;;24.20;99.90;;;;;;5157207;27;20014;-46
2023/06/18 10:41:27;;;;;;;;;;;24.30;99.90;;;;;;5138804;27;19919;-46
2023/06/18 10:43:54;;;;;;;;;;;24.40;99.90;;;;;;5157171;27;20412;-47
2023/06/18 10:46:21;;;;;;;;;;;24.50;99.90;;;;;;5156978;27;20358;-46
2023/06/18 10:49:05;;;;;;;;;;;24.60;99.90;;;;;;5138778;27;19919;-46
2023/06/18 10:51:31;;;;;;;;;;;24.70;99.90;;;;;;5157312;27;19944;-46
2023/06/18 10:54:17;;;;;;;;;;;24.80;99.90;;;;;;5138903;27;19919;-46
2023/06/18 10:56:51;;;;;;;;;;;24.90;99.90;;;;;;5157197;27;19919;-46
2023/06/18 10:59:31;;;;;;;;;;;25.00;99.90;;;;;;5156673;27;20388;-46
2023/06/18 11:02:00;;;;;;;;;;;25.10;99.90;;;;;;5157212;27;19919;-46
2023/06/18 11:04:29;;;;;;;;;;;25.20;99.90;;;;;;5156874;27;19926;-47
2023/06/18 11:07:11;;;;;;;;;;;25.30;99.90;;;;;;5138492;27;19926;-46
2023/06/18 11:10:05;;;;;;;;;;;25.40;99.90;;;;;;5156613;27;19926;-46
2023/06/18 11:12:35;;;;;;;;;;;25.50;99.90;;;;;;5134276;27;19948;-47
2023/06/18 11:15:06;;;;;;;;;;;25.60;99.90;;;;;;5156373;27;20014;-46
2023/06/18 11:17:32;;;;;;;;;;;25.70;99.90;;;;;;5156641;27;20013;-46
2023/06/18 11:19:59;;;;;;;;;;;25.80;99.90;;;;;;5156351;27;19919;-46
2023/06/18 11:22:26;;;;;;;;;;;25.90;99.90;;;;;;5156181;27;20442;-47
2023/06/18 11:24:52;;;;;;;;;;;26.00;99.90;;;;;;5156458;27;19918;-46
2023/06/18 11:27:19;;;;;;;;;;;26.00;99.90;;;;;;5137721;27;19918;-46
2023/06/18 11:29:45;;;;;;;;;;;26.10;99.90;;;;;;5138157;27;20315;-47
2023/06/18 11:32:14;;;;;;;;;;;26.10;99.90;;;;;;5156283;27;20286;-48
2023/06/18 11:34:40;;;;;;;;;;;26.10;99.90;;;;;;5156113;27;19963;-47
2023/06/18 11:37:06;;;;;;;;;;;26.10;99.90;;;;;;5156298;27;20262;-47
2023/06/18 11:39:33;;;;;;;;;;;26.20;99.90;;;;;;5156099;27;19976;-47
2023/06/18 11:42:11;;;;;;;;;;;26.20;99.90;;;;;;5155755;27;19975;-47
2023/06/18 11:44:46;;;;;;;;;;;26.20;99.90;;;;;;5156156;27;20362;-46
2023/06/18 11:47:12;;;;;;;;;;;26.20;99.90;;;;;;5155917;27;19923;-46
2023/06/18 11:49:40;;;;;;;;;;;26.10;99.90;;;;;;5156160;27;19919;-47
2023/06/18 11:52:06;;;;;;;;;;;26.00;99.90;;;;;;5156047;27;19918;-46
2023/06/18 11:54:34;;;;;;;;;;;26.10;99.90;;;;;;5155837;27;19919;-46
2023/06/18 11:57:00;;;;;;;;;;;26.00;99.90;;;;;;5155864;27;20297;-46
2023/06/18 11:59:26;;;;;;;;;;;26.00;99.90;;;;;;5155647;27;19925;-47
2023/06/18 12:01:51;;;;;;;;;;;26.10;99.90;;;;;;5155744;27;19919;-47
2023/06/18 12:04:17;;;;;;;;;;;26.00;99.90;;;;;;5137936;27;19919;-46
2023/06/18 12:06:43;;;;;;;;;;;26.00;99.90;;;;;;5155843;27;20014;-46
2023/06/18 12:09:09;;;;;;;;;;;26.10;99.90;;;;;;5120554;27;19926;-47
2023/06/18 12:11:53;;;;;;;;;;;26.10;99.90;;;;;;5155700;27;19919;-46
2023/06/18 12:14:25;;;;;;;;;;;26.20;99.90;;;;;;5155583;27;20013;-47
2023/06/18 12:16:54;;;;;;;;;;;26.30;99.90;;;;;;5155827;27;19919;-46
2023/06/18 12:19:21;;;;;;;;;;;26.30;99.90;;;;;;5155549;27;19970;-46
2023/06/18 12:21:46;;;;;;;;;;;26.30;99.90;;;;;;5155758;27;19919;-46
2023/06/18 12:24:12;;;;;;;;;;;26.30;99.90;;;;;;5155537;27;19919;-46
2023/06/18 12:26:37;;;;;;;;;;;26.30;99.90;;;;;;5158509;27;19926;-46
2023/06/18 12:29:05;;;;;;;;;;;26.20;99.90;;;;;;5159644;27;19962;-46
2023/06/18 12:31:30;;;;;;;;;;;26.20;99.90;;;;;;5159891;27;19977;-46
2023/06/18 12:33:56;;;;;;;;;;;26.10;99.90;;;;;;5159598;27;20285;-46
2023/06/18 12:36:25;;;;;;;;;;;26.10;99.90;;;;;;5159964;27;20007;-46
2023/06/18 12:38:51;;;;;;;;;;;26.00;99.90;;;;;;5159778;27;19926;-47
2023/06/18 12:41:25;;;;;;;;;;;26.00;99.90;;;;;;5159686;27;19919;-47
2023/06/18 12:43:54;;;;;;;;;;;25.90;99.90;;;;;;5159916;27;19926;-47
2023/06/18 12:46:24;;;;;;;;;;;26.00;99.90;;;;;;5159896;27;20286;-46
2023/06/18 12:48:50;;;;;;;;;;;26.00;99.90;;;;;;5159365;27;19972;-48
2023/06/18 12:51:15;;;;;;;;;;;26.10;99.90;;;;;;5159396;27;20026;-46
2023/06/18 12:53:41;;;;;;;;;;;26.10;99.90;;;;;;5159239;27;19919;-46
2023/06/18 12:56:21;;;;;;;;;;;26.30;99.90;;;;;;5159273;27;19919;-47
2023/06/18 12:58:47;;;;;;;;;;;26.40;98.80;;;;;;5159182;27;19919;-47
2023/06/18 13:01:13;;;;;;;;;;;26.50;99.60;;;;;;5159948;27;19926;-46
2023/06/18 13:03:41;;;;;;;;;;;26.60;99.40;;;;;;5159095;27;20366;-46
2023/06/18 13:06:10;;;;;;;;;;;26.70;99.10;;;;;;5158971;27;19918;-47
2023/06/18 13:08:36;;;;;;;;;;;26.70;99.10;;;;;;5158912;27;19925;-46
2023/06/18 13:11:02;;;;;;;;;;;26.80;98.90;;;;;;5140776;27;19919;-46
2023/06/18 13:13:28;;;;;;;;;;;26.70;97.80;;;;;;5159032;27;19918;-47
2023/06/18 13:15:57;;;;;;;;;;;26.70;98.00;;;;;;5158906;27;20286;-46
2023/06/18 13:18:23;;;;;;;;;;;26.70;97.80;;;;;;5159023;27;19926;-46
2023/06/18 13:20:49;;;;;;;;;;;26.70;98.10;;;;;;5158861;27;20021;-46
2023/06/18 13:23:15;;;;;;;;;;;26.60;97.30;;;;;;5158793;27;19962;-47
2023/06/18 13:25:41;;;;;;;;;;;26.60;97.00;;;;;;5158813;27;19920;-47
2023/06/18 13:28:06;;;;;;;;;;;26.60;97.80;;;;;;5158744;27;19971;-46
2023/06/18 13:30:32;;;;;;;;;;;26.60;97.00;;;;;;5140730;27;19919;-46
2023/06/18 13:32:58;;;;;;;;;;;26.60;97.40;;;;;;5140079;27;19919;-46
2023/06/18 13:35:24;;;;;;;;;;;26.60;97.10;;;;;;5158622;27;19930;-46
2023/06/18 13:37:50;;;;;;;;;;;26.70;96.70;;;;;;5158435;27;19919;-47
2023/06/18 13:40:16;;;;;;;;;;;26.70;96.10;;;;;;5159127;27;19981;-46
2023/06/18 13:42:42;;;;;;;;;;;26.80;95.90;;;;;;5158497;27;20326;-47
2023/06/18 13:45:08;;;;;;;;;;;26.90;95.80;;;;;;5140054;27;19919;-47
2023/06/18 13:47:33;;;;;;;;;;;26.80;94.50;;;;;;5158357;27;19952;-46
2023/06/18 13:49:59;;;;;;;;;;;26.90;95.50;;;;;;5139965;27;19919;-47
2023/06/18 13:52:25;;;;;;;;;;;26.80;95.00;;;;;;5158159;27;20468;-47
2023/06/18 13:54:50;;;;;;;;;;;26.90;95.20;;;;;;5158214;27;19918;-47
2023/06/18 13:57:19;;;;;;;;;;;26.80;94.90;;;;;;5158239;27;19919;-48
2023/06/18 13:59:45;;;;;;;;;;;26.80;95.50;;;;;;5157990;27;19919;-50
2023/06/18 14:02:12;;;;;;;;;;;26.80;95.60;;;;;;5140057;27;20010;-48
2023/06/18 14:04:39;;;;;;;;;;;26.80;95.10;;;;;;5158007;27;19970;-46
2023/06/18 14:07:06;;;;;;;;;;;26.90;95.20;;;;;;5157765;27;19964;-47
2023/06/18 14:09:31;;;;;;;;;;;26.90;94.40;;;;;;5157978;27;19919;-47
2023/06/18 14:11:57;;;;;;;;;;;26.90;94.30;;;;;;5157887;27;19926;-49
2023/06/18 14:14:22;;;;;;;;;;;26.80;93.50;;;;;;5157867;27;19919;-47